Latest Weather Observations for Port Hedland

IDW60801

Issued at 4:05 pm WST Thursday 24 July 2014 (issued every 30 minutes, with the page automatically refreshed every 10 minutes)

About weather observations | Map of weather stations | Latest weather observations for WA | Other Formats
Station Details ID: 004032 Name: PORT HEDLAND AIRPORT Lat: -20.37 Lon: 118.63 Height: 6.4 m
Data from the previous 72 hours. | See also: Recent months at Port Hedland
Date/Time
WST
Temp
°C
App
Temp
°C
Dew
Point
Rel
Hum
%
Delta-T
°C
Wind Press
QNH
hPa
Press
MSL
hPa
Rain
since 9 am
mm
Dir
 
Spd
km/h
Gust
km/h
Spd
kts
Gust
kts
24/04:00pm 24.4 18.8 -3.3 15 11.9 ESE 17 22 9 12 1017.1 - 0.0
24/03:30pm 24.6 19.1 -2.3 16 11.8 S 17 20 9 11 1017.0 - 0.0
24/03:00pm 24.6 17.7 -2.8 16 11.9 ESE 24 37 13 20 1017.0 1017.0 0.0
24/02:30pm 24.6 19.1 -1.9 17 11.7 SE 17 24 9 13 1017.1 - 0.0
24/02:00pm 24.8 17.9 -2.3 16 11.9 SSE 24 30 13 16 1017.4 - 0.0
24/01:30pm 24.0 17.9 -2.0 17 11.4 ESE 20 33 11 18 1017.8 - 0.0
24/01:00pm 24.1 17.3 -1.7 18 11.4 SE 24 33 13 18 1018.3 - 0.0
24/12:30pm 23.2 17.4 0.0 21 10.5 SE 20 33 11 18 1018.8 - 0.0
24/12:00pm 22.8 16.1 -1.3 20 10.6 SE 24 35 13 19 1019.3 1019.3 0.0
24/11:30am 22.6 15.7 -0.1 22 10.2 SE 26 39 14 21 1019.7 - 0.0
24/11:00am 21.8 14.5 0.2 23 9.7 SE 28 39 15 21 1020.1 - 0.0
24/10:30am 21.8 15.5 1.3 25 9.4 SE 24 33 13 18 1020.5 - 0.0
24/10:00am 21.1 15.2 1.7 27 8.9 SE 22 32 12 17 1020.7 - 0.0
24/09:30am 20.5 15.3 3.4 32 8.1 SE 20 26 11 14 1020.8 - 0.0
24/09:00am 18.9 14.5 5.0 40 6.7 SE 17 24 9 13 1020.9 1020.9 0.0
24/08:30am 16.9 12.9 6.7 51 5.0 SSE 17 24 9 13 1020.6 - 0.0
24/08:00am 14.5 10.7 7.4 62 3.5 SSE 17 20 9 11 1020.2 - 0.0
24/07:30am 12.7 9.7 7.8 72 2.4 S 13 17 7 9 1019.7 - 0.0
24/07:00am 11.1 8.1 7.6 79 1.7 S 13 15 7 8 1019.3 - 0.0
24/06:30am 10.6 7.6 7.5 81 1.5 SSE 13 17 7 9 1018.8 - 0.0
24/06:00am 11.0 8.4 7.7 80 1.6 S 11 15 6 8 1018.5 1018.5 0.0
24/05:30am 10.9 8.8 8.2 83 1.3 SE 9 11 5 6 1018.2 - 0.0
24/05:00am 11.4 8.9 8.1 80 1.6 SSE 11 13 6 7 1017.8 - 0.0
24/04:30am 11.8 9.3 8.1 78 1.8 SSE 11 13 6 7 1017.6 - 0.0
24/04:00am 11.9 9.9 8.5 80 1.7 S 9 13 5 7 1017.5 - 0.0
24/03:30am 12.2 9.7 8.1 76 2.0 SSE 11 13 6 7 1017.5 - 0.0
24/03:00am 12.5 10.3 7.8 73 2.3 SSE 9 9 5 5 1017.5 1017.5 0.0
24/02:30am 12.7 10.1 7.8 72 2.4 SSE 11 11 6 6 1017.5 - 0.0
24/02:00am 13.2 10.2 7.7 69 2.7 SSE 13 15 7 8 1017.6 - 0.0
24/01:30am 15.1 11.4 6.4 56 4.2 SSE 15 20 8 11 1017.6 - 0.0
24/01:00am 15.7 11.9 5.9 52 4.7 SE 15 19 8 10 1017.6 - 0.0
24/12:30am 15.4 11.8 6.8 56 4.2 SE 15 19 8 10 1017.7 - 0.0
24/12:00am 15.3 12.3 7.9 61 3.7 SE 13 17 7 9 1017.7 1017.7 0.0
 
Date/Time
WST
Temp
°C
App
Temp
°C
Dew
Point
Rel
Hum
%
Delta-T
°C
Wind Press
QNH
hPa
Press
MSL
hPa
Rain
since 9 am
mm
Dir
 
Spd
km/h
Gust
km/h
Spd
kts
Gust
kts
23/11:30pm 14.9 12.2 8.8 67 3.1 S 13 17 7 9 1017.8 - 0.0
23/11:00pm 15.2 12.9 8.9 66 3.2 S 11 15 6 8 1017.8 - 0.0
23/10:30pm 15.4 13.0 8.7 64 3.4 S 11 17 6 9 1017.9 - 0.0
23/10:00pm 15.9 12.9 7.9 59 4.0 S 13 17 7 9 1017.8 - 0.0
23/09:30pm 16.2 12.3 7.1 55 4.5 S 17 20 9 11 1017.6 - 0.0
23/09:00pm 17.0 13.0 6.6 50 5.1 S 17 19 9 10 1017.5 1017.5 0.0
23/08:30pm 16.9 14.1 7.0 52 4.9 S 11 15 6 8 1017.3 - 0.0
23/08:00pm 17.7 15.6 8.3 54 4.8 SSW 9 13 5 7 1017.1 - 0.0
23/07:30pm 17.3 16.7 13.4 78 2.2 W 9 11 5 6 1016.9 - 0.0
23/07:00pm 18.1 17.7 13.1 72 2.8 NW 7 9 4 5 1016.6 - 0.0
23/06:30pm 19.8 19.4 12.3 62 4.2 NW 6 9 3 5 1016.2 - 0.0
23/06:00pm 20.6 18.9 7.6 43 6.7 SSW 6 9 3 5 1016.0 1016.0 0.0
23/05:30pm 24.1 20.7 4.0 27 9.9 S 11 15 6 8 1015.9 - 0.0
23/05:00pm 25.0 21.7 4.3 26 10.3 S 11 17 6 9 1015.8 - 0.0
23/04:30pm 25.7 22.7 4.0 24 10.8 S 9 17 5 9 1015.6 - 0.0
23/04:00pm 25.7 21.8 3.6 24 10.9 SSW 13 20 7 11 1015.5 - 0.0
23/03:30pm 26.2 23.9 5.5 26 10.6 SSW 7 17 4 9 1015.5 - 0.0
23/03:00pm 25.7 22.0 4.6 25 10.6 SSW 13 19 7 10 1015.6 1015.6 0.0
23/02:30pm 25.5 22.3 4.9 26 10.4 S 11 17 6 9 1015.9 - 0.0
23/02:00pm 25.3 22.1 5.2 27 10.2 S 11 17 6 9 1016.1 - 0.0
23/01:30pm 25.2 21.7 5.6 28 10.0 S 13 20 7 11 1016.5 - 0.0
23/01:00pm 24.5 20.2 5.3 29 9.7 SSE 17 26 9 14 1017.1 - 0.0
23/12:30pm 24.0 19.6 5.0 29 9.5 SSE 17 26 9 14 1017.5 - 0.0
23/12:00pm 23.7 18.4 5.1 30 9.3 SSE 22 30 12 16 1018.0 1018.0 0.0
23/11:30am 23.0 17.3 4.8 30 9.0 SSE 24 32 13 17 1018.5 - 0.0
23/11:00am 22.9 17.5 4.7 30 9.0 SE 22 32 12 17 1018.8 - 0.0
23/10:30am 22.3 16.6 4.9 32 8.6 SSE 24 33 13 18 1019.0 - 0.0
23/10:00am 21.5 15.4 5.0 34 8.1 SE 26 35 14 19 1019.3 - 0.0
23/09:30am 20.0 13.0 4.1 35 7.6 SSE 30 41 16 22 1019.5 - 0.0
23/09:00am 18.8 13.7 6.0 43 6.3 SSE 22 30 12 16 1019.4 1019.4 0.0
23/08:30am 17.5 11.7 6.3 47 5.5 SSE 26 39 14 21 1019.3 - 0.0
23/08:00am 15.9 12.2 7.9 59 4.0 SSE 17 24 9 13 1019.0 - 0.0
23/07:30am 14.0 10.4 8.4 69 2.8 S 17 20 9 11 1018.5 - 0.0
23/07:00am 13.0 9.4 8.4 73 2.3 S 17 20 9 11 1018.1 - 0.0
23/06:30am 12.5 9.7 8.5 76 2.0 S 13 20 7 11 1017.7 - 0.0
23/06:00am 12.9 9.7 8.5 74 2.2 S 15 20 8 11 1017.4 1017.4 0.0
23/05:30am 13.3 9.7 8.3 72 2.5 S 17 22 9 12 1017.0 - 0.0
23/05:00am 12.9 9.8 8.9 76 2.0 S 15 19 8 10 1016.9 - 0.0
23/04:30am 13.0 10.3 9.0 77 2.0 S 13 17 7 9 1016.7 - 0.0
23/04:00am 13.3 10.7 9.4 77 2.0 S 13 17 7 9 1016.4 - 0.0
23/03:30am 13.7 11.2 9.6 76 2.1 S 13 17 7 9 1016.3 - 0.0
23/03:00am 13.5 11.0 9.8 78 1.9 SSE 13 19 7 10 1016.3 1016.3 0.0
23/02:30am 14.3 11.5 10.1 76 2.2 S 15 17 8 9 1016.3 - 0.0
23/02:00am 14.5 12.2 10.5 77 2.1 S 13 17 7 9 1016.4 - 0.0
23/01:30am 14.6 12.5 11.2 80 1.8 S 13 17 7 9 1016.4 - 0.0
23/01:00am 15.2 13.5 11.1 76 2.2 S 11 15 6 8 1016.3 - 0.0
23/12:30am 15.0 12.9 11.2 78 2.0 S 13 17 7 9 1016.4 - 0.0
23/12:00am 15.1 13.3 12.2 83 1.6 SSW 13 15 7 8 1016.5 1016.5 0.0
 
Date/Time
WST
Temp
°C
App
Temp
°C
Dew
Point
Rel
Hum
%
Delta-T
°C
Wind Press
QNH
hPa
Press
MSL
hPa
Rain
since 9 am
mm
Dir
 
Spd
km/h
Gust
km/h
Spd
kts
Gust
kts
22/11:30pm 15.0 13.4 12.8 87 1.2 SSW 13 17 7 9 1016.6 - 0.0
22/11:00pm 15.8 14.3 13.1 84 1.5 SSW 13 15 7 8 1016.7 - 0.0
22/10:30pm 15.8 14.6 12.9 83 1.6 SSW 11 13 6 7 1016.8 - 0.0
22/10:00pm 16.7 15.1 12.9 78 2.1 SW 13 15 7 8 1016.7 - 0.0
22/09:30pm 17.0 15.2 13.3 79 2.1 WSW 15 17 8 9 1016.6 - 0.0
22/09:00pm 16.6 14.3 11.8 73 2.6 WSW 15 20 8 11 1016.6 1016.6 0.0
22/08:30pm 19.1 17.0 9.7 54 5.0 SSW 11 15 6 8 1016.3 - 0.0
22/08:00pm 18.9 16.5 9.9 56 4.8 SSW 13 15 7 8 1016.1 - 0.0
22/07:30pm 19.5 17.6 10.4 55 4.9 SSW 11 13 6 7 1015.9 - 0.0
22/07:00pm 20.5 18.5 10.1 51 5.6 SSW 11 13 6 7 1015.5 - 0.0
22/06:30pm 21.4 19.2 9.2 45 6.5 SSW 11 15 6 8 1015.1 - 0.0
22/06:00pm 22.5 19.8 8.8 41 7.3 SSW 13 15 7 8 1014.7 1014.7 0.0
22/05:30pm 24.7 21.3 5.7 29 9.7 S 13 19 7 10 1014.4 - 0.0
22/05:00pm 26.0 22.6 6.1 28 10.3 S 13 19 7 10 1014.1 - 0.0
22/04:30pm 26.6 22.8 6.0 27 10.7 SSW 15 20 8 11 1013.9 - 0.0
22/04:00pm 26.9 23.1 7.4 29 10.4 SSW 17 24 9 13 1013.7 - 0.0
22/03:30pm 27.4 24.5 9.8 33 9.8 SSW 15 24 8 13 1013.7 - 0.0
22/03:00pm 26.8 23.9 11.1 37 8.9 SW 17 20 9 11 1013.8 1013.8 0.0
22/02:30pm 26.8 25.6 12.9 42 8.1 S 11 19 6 10 1013.9 - 0.0
22/02:00pm 26.6 25.1 13.1 43 7.9 S 13 19 7 10 1014.2 - 0.0
22/01:30pm 27.1 25.8 12.5 40 8.5 SW 11 17 6 9 1014.6 - 0.0
22/01:00pm 26.3 25.3 13.3 44 7.6 SSW 11 20 6 11 1015.0 - 0.0
22/12:30pm 25.2 24.7 16.0 56 5.6 S 13 19 7 10 1015.5 - 0.0
22/12:00pm 24.4 22.8 16.0 59 5.1 S 19 24 10 13 1015.9 1015.9 0.0
22/11:30am 24.0 23.0 16.7 63 4.5 SSW 17 24 9 13 1016.4 - 0.0
22/11:00am 23.2 21.9 16.8 67 3.9 SW 19 24 10 13 1016.8 - 0.0
22/10:30am 22.5 21.4 17.7 74 3.0 SSW 20 26 11 14 1017.1 - 0.0
22/10:00am 21.4 20.3 17.7 79 2.3 SSW 20 28 11 15 1017.4 - 0.0
22/09:47am 21.7 21.4 18.3 81 2.1 SSW 17 24 9 13 1017.5 - 0.0
22/09:30am 20.6 20.3 18.2 86 1.5 SSW 17 20 9 11 1017.6 - 0.0
22/09:00am 19.9 19.7 18.6 92 0.8 SW 17 22 9 12 1017.6 1017.6 14.0
22/08:30am 19.3 19.2 18.7 96 0.4 SSW 17 24 9 13 1017.3 - 14.0
22/08:00am 18.7 18.5 18.4 98 0.2 SW 17 24 9 13 1017.3 - 14.0
22/07:30am 18.5 18.5 18.2 98 0.2 SW 15 19 8 10 1017.0 - 14.0
22/07:00am 18.6 19.5 18.3 98 0.2 W 11 13 6 7 1016.9 - 14.0
22/06:30am 18.7 19.2 18.4 98 0.2 SW 13 15 7 8 1016.5 - 14.0
22/06:00am 18.9 20.3 18.6 98 0.2 WSW 9 13 5 7 1016.0 1016.0 14.0
22/05:42am 18.9 20.7 18.7 99 0.1 WSW 7 9 4 5 1015.8 - 14.0
22/05:30am 18.9 20.3 18.7 99 0.1 WSW 9 11 5 6 1015.8 - 14.0
22/05:16am 19.0 20.5 18.8 99 0.1 W 9 15 5 8 1015.8 - 14.0
22/05:00am 18.9 20.7 18.7 99 0.1 SW 7 9 4 5 1015.6 - 14.0
22/04:30am 18.9 21.2 18.6 98 0.2 N 4 9 2 5 1015.3 - 14.0
22/04:04am 18.8 21.9 18.6 99 0.1 CALM 0 0 0 0 1015.3 - 14.0
22/04:00am 18.8 21.9 18.6 99 0.1 CALM 0 0 0 0 1015.3 - 14.0
22/03:30am 18.7 21.7 18.5 99 0.1 CALM 0 0 0 0 1015.2 - 14.0
22/03:00am 18.7 20.5 18.4 98 0.2 N 6 7 3 4 1015.4 1015.4 14.0
22/02:30am 18.8 20.5 18.5 98 0.2 N 7 9 4 5 1015.6 - 14.0
22/02:00am 18.8 19.7 18.5 98 0.2 N 11 13 6 7 1015.8 - 14.0
22/01:30am 18.8 19.4 18.5 98 0.2 NNW 13 17 7 9 1016.0 - 13.8
22/01:29am 18.8 19.4 18.5 98 0.2 NNW 13 17 7 9 1016.0 - 13.8
22/01:10am 18.5 18.9 18.2 98 0.2 N 13 19 7 10 1016.2 - 13.4
22/01:00am 18.6 18.7 18.3 98 0.2 NNW 15 24 8 13 1016.3 - 12.6
22/12:30am 19.1 18.5 18.8 98 0.2 N 20 28 11 15 1016.0 - 10.8
22/12:17am 19.1 18.4 18.6 97 0.3 WNW 20 26 11 14 1016.2 - 9.8
22/12:04am 19.1 18.7 18.8 98 0.2 W 19 24 10 13 1016.1 - 9.4
22/12:00am 19.1 19.0 18.8 98 0.2 W 17 22 9 12 1016.1 1016.1 9.4
 
Date/Time
WST
Temp
°C
App
Temp
°C
Dew
Point
Rel
Hum
%
Delta-T
°C
Wind Press
QNH
hPa
Press
MSL
hPa
Rain
since 9 am
mm
Dir
 
Spd
km/h
Gust
km/h
Spd
kts
Gust
kts
21/11:30pm 18.7 19.6 18.5 99 0.1 SSW 11 15 6 8 1016.0 - 7.6
21/11:25pm 18.7 19.2 18.4 98 0.2 SSW 13 17 7 9 1016.0 - 7.4
21/11:11pm 18.7 18.9 18.5 99 0.1 SW 15 19 8 10 1016.1 - 6.6
21/11:00pm 18.8 19.0 18.6 99 0.1 SW 15 19 8 10 1016.0 - 6.4
21/10:40pm 18.9 19.1 18.6 98 0.2 SW 15 19 8 10 1016.1 - 5.0
21/10:37pm 18.9 19.1 18.6 98 0.2 SW 15 19 8 10 1016.1 - 4.8
21/10:30pm 18.9 18.7 18.6 98 0.2 SW 17 20 9 11 1016.3 - 4.6
21/10:19pm 19.0 19.3 18.7 98 0.2 WSW 15 20 8 11 1016.2 - 4.0
21/10:00pm 19.1 19.7 18.6 97 0.3 S 13 15 7 8 1015.9 - 3.4
21/09:30pm 19.2 19.8 18.7 97 0.3 SSW 13 15 7 8 1015.9 - 3.0
21/09:00pm 19.2 20.2 18.6 96 0.4 SSW 11 15 6 8 1015.9 1015.9 3.0
21/08:30pm 19.6 21.1 19.0 96 0.4 SSW 9 11 5 6 1016.0 - 2.6
21/08:00pm 19.7 21.1 18.6 93 0.7 S 9 11 5 6 1015.7 - 1.8
21/07:30pm 19.8 21.0 18.3 91 0.9 SE 9 11 5 6 1015.5 - 1.6
21/07:00pm 20.0 21.7 18.4 90 1.0 N 7 13 4 7 1015.5 - 1.2
21/06:30pm 19.9 22.3 18.0 89 1.2 E 2 6 1 3 1015.0 - 1.0
21/06:00pm 19.6 19.8 17.6 88 1.2 ENE 13 19 7 10 1014.5 1014.5 1.0
21/05:30pm 19.9 20.2 17.8 88 1.3 E 13 17 7 9 1014.6 - 1.0
21/05:00pm 20.1 19.4 18.2 89 1.2 ENE 19 22 10 12 1014.4 - 1.0
21/04:30pm 20.0 20.3 18.7 92 0.8 N 15 26 8 14 1015.2 - 0.4

Other Formats:

Comma delimited format used in spreadsheet applications
http://www.bom.gov.au/fwo/IDW60801/IDW60801.94312.axf

JavaScript Object Notation format (JSON) in row-major order
http://www.bom.gov.au/fwo/IDW60801/IDW60801.94312.json